sensor_id;sensor_type;location;lat;lon;timestamp;temperature;humidity
5960;DHT22;3006;50.956;7.002;2022-10-17T00:01:19;17.10;99.90
5960;DHT22;3006;50.956;7.002;2022-10-17T00:03:47;17.10;99.90
5960;DHT22;3006;50.956;7.002;2022-10-17T00:06:15;17.20;99.90
5960;DHT22;3006;50.956;7.002;2022-10-17T00:08:45;17.10;99.90
5960;DHT22;3006;50.956;7.002;2022-10-17T00:11:15;17.10;99.90
5960;DHT22;3006;50.956;7.002;2022-10-17T00:13:44;17.10;99.90
5960;DHT22;3006;50.956;7.002;2022-10-17T00:16:12;17.10;99.90
5960;DHT22;3006;50.956;7.002;2022-10-17T00:18:40;17.10;99.90
5960;DHT22;3006;50.956;7.002;2022-10-17T00:21:14;17.00;99.90
5960;DHT22;3006;50.956;7.002;2022-10-17T00:23:42;17.00;99.90
5960;DHT22;3006;50.956;7.002;2022-10-17T00:26:12;17.00;99.90
5960;DHT22;3006;50.956;7.002;2022-10-17T00:28:41;17.00;99.90
5960;DHT22;3006;50.956;7.002;2022-10-17T00:31:09;17.00;99.90
5960;DHT22;3006;50.956;7.002;2022-10-17T00:33:37;16.90;99.90
5960;DHT22;3006;50.956;7.002;2022-10-17T00:36:07;17.00;99.90
5960;DHT22;3006;50.956;7.002;2022-10-17T00:38:36;17.00;99.90
5960;DHT22;3006;50.956;7.002;2022-10-17T00:41:05;17.00;99.90
5960;DHT22;3006;50.956;7.002;2022-10-17T00:46:37;17.00;99.90
5960;DHT22;3006;50.956;7.002;2022-10-17T00:49:09;17.00;99.90
5960;DHT22;3006;50.956;7.002;2022-10-17T00:51:42;17.00;99.90
5960;DHT22;3006;50.956;7.002;2022-10-17T00:54:13;17.00;99.90
5960;DHT22;3006;50.956;7.002;2022-10-17T00:56:42;17.00;99.90
5960;DHT22;3006;50.956;7.002;2022-10-17T00:59:11;17.00;99.90
5960;DHT22;3006;50.956;7.002;2022-10-17T01:01:45;17.00;99.90
5960;DHT22;3006;50.956;7.002;2022-10-17T01:04:14;16.90;99.90
5960;DHT22;3006;50.956;7.002;2022-10-17T01:06:42;16.90;99.90
5960;DHT22;3006;50.956;7.002;2022-10-17T01:09:10;16.80;99.90
5960;DHT22;3006;50.956;7.002;2022-10-17T01:11:43;16.90;99.90
5960;DHT22;3006;50.956;7.002;2022-10-17T01:14:19;16.90;99.90
5960;DHT22;3006;50.956;7.002;2022-10-17T01:16:55;16.90;99.90
5960;DHT22;3006;50.956;7.002;2022-10-17T01:19:40;16.90;99.90
5960;DHT22;3006;50.956;7.002;2022-10-17T01:22:17;16.80;99.90
5960;DHT22;3006;50.956;7.002;2022-10-17T01:25:05;16.80;99.90
5960;DHT22;3006;50.956;7.002;2022-10-17T01:27:55;16.80;99.90
5960;DHT22;3006;50.956;7.002;2022-10-17T01:33:30;16.90;99.90
5960;DHT22;3006;50.956;7.002;2022-10-17T01:36:05;16.90;99.90
5960;DHT22;3006;50.956;7.002;2022-10-17T01:38:39;16.80;99.90
5960;DHT22;3006;50.956;7.002;2022-10-17T01:41:14;16.80;99.90
5960;DHT22;3006;50.956;7.002;2022-10-17T01:43:48;16.80;99.90
5960;DHT22;3006;50.956;7.002;2022-10-17T01:46:22;16.70;99.90
5960;DHT22;3006;50.956;7.002;2022-10-17T01:48:54;16.80;99.90
5960;DHT22;3006;50.956;7.002;2022-10-17T01:51:28;16.70;99.90
5960;DHT22;3006;50.956;7.002;2022-10-17T01:53:59;16.70;99.90
5960;DHT22;3006;50.956;7.002;2022-10-17T01:56:31;16.80;99.90
5960;DHT22;3006;50.956;7.002;2022-10-17T01:59:05;16.70;99.90
5960;DHT22;3006;50.956;7.002;2022-10-17T02:01:36;16.80;99.90
5960;DHT22;3006;50.956;7.002;2022-10-17T02:04:07;16.70;99.90
5960;DHT22;3006;50.956;7.002;2022-10-17T02:06:36;16.70;99.90
5960;DHT22;3006;50.956;7.002;2022-10-17T02:09:17;16.70;99.90
5960;DHT22;3006;50.956;7.002;2022-10-17T02:11:54;16.80;99.90
5960;DHT22;3006;50.956;7.002;2022-10-17T02:14:34;16.70;99.90
5960;DHT22;3006;50.956;7.002;2022-10-17T02:17:12;16.80;99.90
5960;DHT22;3006;50.956;7.002;2022-10-17T02:19:52;16.80;99.90
5960;DHT22;3006;50.956;7.002;2022-10-17T02:22:29;16.90;99.90
5960;DHT22;3006;50.956;7.002;2022-10-17T02:25:05;16.90;99.90
5960;DHT22;3006;50.956;7.002;2022-10-17T02:27:43;16.90;99.90
5960;DHT22;3006;50.956;7.002;2022-10-17T02:30:16;16.90;99.90
5960;DHT22;3006;50.956;7.002;2022-10-17T02:32:50;16.90;99.90
5960;DHT22;3006;50.956;7.002;2022-10-17T02:35:21;16.90;99.90
5960;DHT22;3006;50.956;7.002;2022-10-17T02:37:51;16.90;99.90
5960;DHT22;3006;50.956;7.002;2022-10-17T02:40:22;16.90;99.90
5960;DHT22;3006;50.956;7.002;2022-10-17T02:42:52;16.90;99.90
5960;DHT22;3006;50.956;7.002;2022-10-17T02:45:22;16.90;99.90
5960;DHT22;3006;50.956;7.002;2022-10-17T02:47:56;16.90;99.90
5960;DHT22;3006;50.956;7.002;2022-10-17T02:50:32;16.90;99.90
5960;DHT22;3006;50.956;7.002;2022-10-17T02:53:08;17.00;99.90
5960;DHT22;3006;50.956;7.002;2022-10-17T02:55:41;17.00;99.90
5960;DHT22;3006;50.956;7.002;2022-10-17T02:58:13;16.90;99.90
5960;DHT22;3006;50.956;7.002;2022-10-17T03:00:44;16.90;99.90
5960;DHT22;3006;50.956;7.002;2022-10-17T03:03:21;16.90;99.90
5960;DHT22;3006;50.956;7.002;2022-10-17T03:05:52;17.00;99.90
5960;DHT22;3006;50.956;7.002;2022-10-17T03:08:24;17.00;99.90
5960;DHT22;3006;50.956;7.002;2022-10-17T03:10:52;17.00;99.90
5960;DHT22;3006;50.956;7.002;2022-10-17T03:13:21;17.00;99.90
5960;DHT22;3006;50.956;7.002;2022-10-17T03:15:49;17.00;99.90
5960;DHT22;3006;50.956;7.002;2022-10-17T03:18:17;17.10;99.90
5960;DHT22;3006;50.956;7.002;2022-10-17T03:20:47;17.10;99.90
5960;DHT22;3006;50.956;7.002;2022-10-17T03:23:17;17.10;99.90
5960;DHT22;3006;50.956;7.002;2022-10-17T03:25:46;17.10;99.90
5960;DHT22;3006;50.956;7.002;2022-10-17T03:28:15;17.10;99.90
5960;DHT22;3006;50.956;7.002;2022-10-17T03:30:43;17.10;99.90
5960;DHT22;3006;50.956;7.002;2022-10-17T03:33:11;17.10;99.90
5960;DHT22;3006;50.956;7.002;2022-10-17T03:35:39;17.10;99.90
5960;DHT22;3006;50.956;7.002;2022-10-17T03:38:07;17.10;99.90
5960;DHT22;3006;50.956;7.002;2022-10-17T03:40:37;17.10;99.90
5960;DHT22;3006;50.956;7.002;2022-10-17T03:43:05;17.10;99.90
5960;DHT22;3006;50.956;7.002;2022-10-17T03:45:33;17.10;99.90
5960;DHT22;3006;50.956;7.002;2022-10-17T03:48:03;17.10;99.90
5960;DHT22;3006;50.956;7.002;2022-10-17T03:50:31;17.10;99.90
5960;DHT22;3006;50.956;7.002;2022-10-17T03:52:59;17.10;99.90
5960;DHT22;3006;50.956;7.002;2022-10-17T03:55:27;17.10;99.90
5960;DHT22;3006;50.956;7.002;2022-10-17T03:57:57;17.10;99.90
5960;DHT22;3006;50.956;7.002;2022-10-17T04:00:25;17.10;99.90
5960;DHT22;3006;50.956;7.002;2022-10-17T04:02:57;17.10;99.90
5960;DHT22;3006;50.956;7.002;2022-10-17T04:05:25;17.10;99.90
5960;DHT22;3006;50.956;7.002;2022-10-17T04:07:55;17.10;99.90
5960;DHT22;3006;50.956;7.002;2022-10-17T04:10:48;17.10;99.90
5960;DHT22;3006;50.956;7.002;2022-10-17T04:13:17;17.10;99.90
5960;DHT22;3006;50.956;7.002;2022-10-17T04:15:53;17.20;99.90
5960;DHT22;3006;50.956;7.002;2022-10-17T04:18:21;17.20;99.90
5960;DHT22;3006;50.956;7.002;2022-10-17T04:20:49;17.20;99.90
5960;DHT22;3006;50.956;7.002;2022-10-17T04:23:19;17.20;99.90
5960;DHT22;3006;50.956;7.002;2022-10-17T04:25:49;17.20;99.90
5960;DHT22;3006;50.956;7.002;2022-10-17T04:28:18;17.20;99.90
5960;DHT22;3006;50.956;7.002;2022-10-17T04:30:55;17.30;99.90
5960;DHT22;3006;50.956;7.002;2022-10-17T04:33:23;17.30;99.90
5960;DHT22;3006;50.956;7.002;2022-10-17T04:35:55;17.20;99.90
5960;DHT22;3006;50.956;7.002;2022-10-17T04:38:24;17.20;99.90
5960;DHT22;3006;50.956;7.002;2022-10-17T04:40:56;17.20;99.90
5960;DHT22;3006;50.956;7.002;2022-10-17T04:43:25;17.20;99.90
5960;DHT22;3006;50.956;7.002;2022-10-17T04:45:54;17.20;99.90
5960;DHT22;3006;50.956;7.002;2022-10-17T04:48:23;17.20;99.90
5960;DHT22;3006;50.956;7.002;2022-10-17T04:50:55;17.20;99.90
5960;DHT22;3006;50.956;7.002;2022-10-17T04:53:33;17.20;99.90
5960;DHT22;3006;50.956;7.002;2022-10-17T04:56:06;17.20;99.90
5960;DHT22;3006;50.956;7.002;2022-10-17T04:58:36;17.20;99.90
5960;DHT22;3006;50.956;7.002;2022-10-17T05:01:05;17.20;99.90
5960;DHT22;3006;50.956;7.002;2022-10-17T05:03:35;17.20;99.90
5960;DHT22;3006;50.956;7.002;2022-10-17T05:06:04;17.20;99.90
5960;DHT22;3006;50.956;7.002;2022-10-17T05:08:33;17.20;99.90
5960;DHT22;3006;50.956;7.002;2022-10-17T05:11:01;17.10;99.90
5960;DHT22;3006;50.956;7.002;2022-10-17T05:13:29;17.10;99.90
5960;DHT22;3006;50.956;7.002;2022-10-17T05:15:59;17.10;99.90
5960;DHT22;3006;50.956;7.002;2022-10-17T05:18:28;17.20;99.90
5960;DHT22;3006;50.956;7.002;2022-10-17T05:20:56;17.20;99.90
5960;DHT22;3006;50.956;7.002;2022-10-17T05:23:24;17.20;99.90
5960;DHT22;3006;50.956;7.002;2022-10-17T05:25:55;17.20;99.90
5960;DHT22;3006;50.956;7.002;2022-10-17T05:28:25;17.10;99.90
5960;DHT22;3006;50.956;7.002;2022-10-17T05:30:58;17.10;99.90
5960;DHT22;3006;50.956;7.002;2022-10-17T05:33:28;17.10;99.90
5960;DHT22;3006;50.956;7.002;2022-10-17T05:35:57;17.10;99.90
5960;DHT22;3006;50.956;7.002;2022-10-17T05:38:25;17.10;99.90
5960;DHT22;3006;50.956;7.002;2022-10-17T05:40:56;17.10;99.90
5960;DHT22;3006;50.956;7.002;2022-10-17T05:43:26;17.20;99.90
5960;DHT22;3006;50.956;7.002;2022-10-17T05:45:55;17.20;99.90
5960;DHT22;3006;50.956;7.002;2022-10-17T05:48:24;17.10;99.90
5960;DHT22;3006;50.956;7.002;2022-10-17T05:50:57;17.20;99.90
5960;DHT22;3006;50.956;7.002;2022-10-17T05:53:26;17.20;99.90
5960;DHT22;3006;50.956;7.002;2022-10-17T05:56:00;17.20;99.90
5960;DHT22;3006;50.956;7.002;2022-10-17T05:58:30;17.20;99.90
5960;DHT22;3006;50.956;7.002;2022-10-17T06:01:28;17.20;99.90
5960;DHT22;3006;50.956;7.002;2022-10-17T06:03:58;17.20;99.90
5960;DHT22;3006;50.956;7.002;2022-10-17T06:06:26;17.10;99.90
5960;DHT22;3006;50.956;7.002;2022-10-17T06:08:55;17.10;99.90
5960;DHT22;3006;50.956;7.002;2022-10-17T06:11:28;17.10;99.90
5960;DHT22;3006;50.956;7.002;2022-10-17T06:13:57;17.10;99.90
5960;DHT22;3006;50.956;7.002;2022-10-17T06:16:27;17.10;99.90
5960;DHT22;3006;50.956;7.002;2022-10-17T06:18:55;17.10;99.90
5960;DHT22;3006;50.956;7.002;2022-10-17T06:21:26;17.10;99.90
5960;DHT22;3006;50.956;7.002;2022-10-17T06:24:05;17.10;99.90
5960;DHT22;3006;50.956;7.002;2022-10-17T06:26:35;17.10;99.90
5960;DHT22;3006;50.956;7.002;2022-10-17T06:29:06;17.10;99.90
5960;DHT22;3006;50.956;7.002;2022-10-17T06:31:40;17.20;99.90
5960;DHT22;3006;50.956;7.002;2022-10-17T06:34:09;17.20;99.90
5960;DHT22;3006;50.956;7.002;2022-10-17T06:36:40;17.20;99.90
5960;DHT22;3006;50.956;7.002;2022-10-17T06:39:08;17.20;99.90
5960;DHT22;3006;50.956;7.002;2022-10-17T06:41:42;17.30;99.90
5960;DHT22;3006;50.956;7.002;2022-10-17T06:44:11;17.30;99.90
5960;DHT22;3006;50.956;7.002;2022-10-17T06:47:17;17.30;99.90
5960;DHT22;3006;50.956;7.002;2022-10-17T06:49:47;17.40;99.90
5960;DHT22;3006;50.956;7.002;2022-10-17T06:52:25;17.40;99.90
5960;DHT22;3006;50.956;7.002;2022-10-17T06:55:12;17.40;99.90
5960;DHT22;3006;50.956;7.002;2022-10-17T06:58:09;17.40;99.90
5960;DHT22;3006;50.956;7.002;2022-10-17T07:00:44;17.50;99.90
5960;DHT22;3006;50.956;7.002;2022-10-17T07:03:12;17.50;99.90
5960;DHT22;3006;50.956;7.002;2022-10-17T07:05:40;17.60;99.90
5960;DHT22;3006;50.956;7.002;2022-10-17T07:08:10;17.60;99.90
5960;DHT22;3006;50.956;7.002;2022-10-17T07:10:38;17.70;99.90
5960;DHT22;3006;50.956;7.002;2022-10-17T07:13:07;17.80;99.90
5960;DHT22;3006;50.956;7.002;2022-10-17T07:15:36;17.90;99.90
5960;DHT22;3006;50.956;7.002;2022-10-17T07:18:04;18.00;99.90
5960;DHT22;3006;50.956;7.002;2022-10-17T07:20:33;18.00;99.90
5960;DHT22;3006;50.956;7.002;2022-10-17T07:23:01;18.00;99.90
5960;DHT22;3006;50.956;7.002;2022-10-17T07:25:30;18.10;99.90
5960;DHT22;3006;50.956;7.002;2022-10-17T07:28:06;18.10;99.90
5960;DHT22;3006;50.956;7.002;2022-10-17T07:30:34;18.20;99.90
5960;DHT22;3006;50.956;7.002;2022-10-17T07:33:07;18.20;99.90
5960;DHT22;3006;50.956;7.002;2022-10-17T07:35:37;18.20;99.90
5960;DHT22;3006;50.956;7.002;2022-10-17T07:38:07;18.20;99.90
5960;DHT22;3006;50.956;7.002;2022-10-17T07:40:36;18.30;99.90
5960;DHT22;3006;50.956;7.002;2022-10-17T07:43:04;18.30;99.90
5960;DHT22;3006;50.956;7.002;2022-10-17T07:45:32;18.30;99.90
5960;DHT22;3006;50.956;7.002;2022-10-17T07:48:00;18.30;99.90
5960;DHT22;3006;50.956;7.002;2022-10-17T07:50:30;18.40;99.90
5960;DHT22;3006;50.956;7.002;2022-10-17T07:52:58;18.40;99.90
5960;DHT22;3006;50.956;7.002;2022-10-17T07:55:26;18.50;99.90
5960;DHT22;3006;50.956;7.002;2022-10-17T07:57:56;18.50;99.90
5960;DHT22;3006;50.956;7.002;2022-10-17T08:00:26;18.50;99.90
5960;DHT22;3006;50.956;7.002;2022-10-17T08:02:54;18.60;99.90
5960;DHT22;3006;50.956;7.002;2022-10-17T08:05:22;18.60;99.90
5960;DHT22;3006;50.956;7.002;2022-10-17T08:07:50;18.60;99.90
5960;DHT22;3006;50.956;7.002;2022-10-17T08:10:18;18.70;99.90
5960;DHT22;3006;50.956;7.002;2022-10-17T08:12:46;18.70;99.90
5960;DHT22;3006;50.956;7.002;2022-10-17T08:15:16;18.80;99.90
5960;DHT22;3006;50.956;7.002;2022-10-17T08:17:44;18.90;99.90
5960;DHT22;3006;50.956;7.002;2022-10-17T08:20:12;19.00;99.90
5960;DHT22;3006;50.956;7.002;2022-10-17T08:22:40;19.00;99.90
5960;DHT22;3006;50.956;7.002;2022-10-17T08:25:08;19.00;99.90
5960;DHT22;3006;50.956;7.002;2022-10-17T08:27:36;19.10;99.90
5960;DHT22;3006;50.956;7.002;2022-10-17T08:30:05;19.00;99.90
5960;DHT22;3006;50.956;7.002;2022-10-17T08:32:35;19.00;99.90
5960;DHT22;3006;50.956;7.002;2022-10-17T08:35:03;19.00;99.90
5960;DHT22;3006;50.956;7.002;2022-10-17T08:37:31;19.00;99.90
5960;DHT22;3006;50.956;7.002;2022-10-17T08:40:00;19.00;99.90
5960;DHT22;3006;50.956;7.002;2022-10-17T08:42:43;19.10;99.90
5960;DHT22;3006;50.956;7.002;2022-10-17T08:45:20;19.10;99.90
5960;DHT22;3006;50.956;7.002;2022-10-17T08:47:57;19.20;99.90
5960;DHT22;3006;50.956;7.002;2022-10-17T08:50:31;19.30;99.90
5960;DHT22;3006;50.956;7.002;2022-10-17T08:53:05;19.40;99.90
5960;DHT22;3006;50.956;7.002;2022-10-17T08:55:36;19.40;99.90
5960;DHT22;3006;50.956;7.002;2022-10-17T08:58:16;19.40;99.90
5960;DHT22;3006;50.956;7.002;2022-10-17T09:00:54;19.40;99.90
5960;DHT22;3006;50.956;7.002;2022-10-17T09:03:48;19.50;99.90
5960;DHT22;3006;50.956;7.002;2022-10-17T09:06:22;19.50;99.90
5960;DHT22;3006;50.956;7.002;2022-10-17T09:09:12;19.50;99.90
5960;DHT22;3006;50.956;7.002;2022-10-17T09:11:55;19.60;99.90
5960;DHT22;3006;50.956;7.002;2022-10-17T09:14:44;19.60;99.90
5960;DHT22;3006;50.956;7.002;2022-10-17T09:17:21;19.70;99.90
5960;DHT22;3006;50.956;7.002;2022-10-17T09:19:58;19.70;99.90
5960;DHT22;3006;50.956;7.002;2022-10-17T09:22:29;19.70;99.90
5960;DHT22;3006;50.956;7.002;2022-10-17T09:25:02;19.70;99.90
5960;DHT22;3006;50.956;7.002;2022-10-17T09:27:35;19.70;99.90
5960;DHT22;3006;50.956;7.002;2022-10-17T09:30:26;19.80;99.90
5960;DHT22;3006;50.956;7.002;2022-10-17T09:33:14;19.80;99.90
5960;DHT22;3006;50.956;7.002;2022-10-17T09:36:09;19.80;99.90
5960;DHT22;3006;50.956;7.002;2022-10-17T09:38:42;19.90;99.90
5960;DHT22;3006;50.956;7.002;2022-10-17T09:41:17;19.90;99.90
5960;DHT22;3006;50.956;7.002;2022-10-17T09:44:17;20.00;99.90
5960;DHT22;3006;50.956;7.002;2022-10-17T09:46:58;20.00;99.90
5960;DHT22;3006;50.956;7.002;2022-10-17T09:49:31;20.00;99.90
5960;DHT22;3006;50.956;7.002;2022-10-17T09:52:02;20.00;99.90
5960;DHT22;3006;50.956;7.002;2022-10-17T09:54:39;20.00;99.90
5960;DHT22;3006;50.956;7.002;2022-10-17T09:57:09;20.10;99.90
5960;DHT22;3006;50.956;7.002;2022-10-17T09:59:39;20.10;99.90
5960;DHT22;3006;50.956;7.002;2022-10-17T10:02:14;20.10;99.90
5960;DHT22;3006;50.956;7.002;2022-10-17T10:04:53;20.10;99.90
5960;DHT22;3006;50.956;7.002;2022-10-17T10:07:34;20.20;99.90
5960;DHT22;3006;50.956;7.002;2022-10-17T10:10:05;20.30;99.90
5960;DHT22;3006;50.956;7.002;2022-10-17T10:12:36;20.30;99.90
5960;DHT22;3006;50.956;7.002;2022-10-17T10:15:28;20.50;99.90
5960;DHT22;3006;50.956;7.002;2022-10-17T10:17:57;20.60;99.90
5960;DHT22;3006;50.956;7.002;2022-10-17T10:20:29;20.70;99.90
5960;DHT22;3006;50.956;7.002;2022-10-17T10:23:06;20.80;99.90
5960;DHT22;3006;50.956;7.002;2022-10-17T10:25:35;21.00;99.90
5960;DHT22;3006;50.956;7.002;2022-10-17T10:28:09;21.10;99.90
5960;DHT22;3006;50.956;7.002;2022-10-17T10:30:37;21.10;99.90
5960;DHT22;3006;50.956;7.002;2022-10-17T10:33:10;21.00;99.90
5960;DHT22;3006;50.956;7.002;2022-10-17T10:35:38;20.90;99.90
5960;DHT22;3006;50.956;7.002;2022-10-17T10:38:12;21.00;99.90
5960;DHT22;3006;50.956;7.002;2022-10-17T10:40:46;20.90;99.90
5960;DHT22;3006;50.956;7.002;2022-10-17T10:43:23;20.90;99.90
5960;DHT22;3006;50.956;7.002;2022-10-17T10:45:53;20.90;99.90
5960;DHT22;3006;50.956;7.002;2022-10-17T10:48:23;20.90;99.90
5960;DHT22;3006;50.956;7.002;2022-10-17T10:50:53;20.80;99.90
5960;DHT22;3006;50.956;7.002;2022-10-17T10:53:39;20.80;99.90
5960;DHT22;3006;50.956;7.002;2022-10-17T10:56:13;20.80;99.90
5960;DHT22;3006;50.956;7.002;2022-10-17T10:58:54;20.70;99.90
5960;DHT22;3006;50.956;7.002;2022-10-17T11:01:30;20.70;99.90
5960;DHT22;3006;50.956;7.002;2022-10-17T11:04:19;20.80;99.90
5960;DHT22;3006;50.956;7.002;2022-10-17T11:06:52;20.70;99.90
5960;DHT22;3006;50.956;7.002;2022-10-17T11:09:34;20.80;99.90
5960;DHT22;3006;50.956;7.002;2022-10-17T11:12:09;20.70;99.90
5960;DHT22;3006;50.956;7.002;2022-10-17T11:14:42;20.80;99.90
5960;DHT22;3006;50.956;7.002;2022-10-17T11:17:19;20.80;99.90
5960;DHT22;3006;50.956;7.002;2022-10-17T11:19:58;20.70;99.90
5960;DHT22;3006;50.956;7.002;2022-10-17T11:22:31;20.70;99.90
5960;DHT22;3006;50.956;7.002;2022-10-17T11:25:04;20.70;99.90
5960;DHT22;3006;50.956;7.002;2022-10-17T11:27:33;20.70;99.90
5960;DHT22;3006;50.956;7.002;2022-10-17T11:30:01;20.70;99.90
5960;DHT22;3006;50.956;7.002;2022-10-17T11:32:35;20.80;99.90
5960;DHT22;3006;50.956;7.002;2022-10-17T11:35:06;20.80;99.90
5960;DHT22;3006;50.956;7.002;2022-10-17T11:37:44;20.80;99.90
5960;DHT22;3006;50.956;7.002;2022-10-17T11:40:19;20.80;99.90
5960;DHT22;3006;50.956;7.002;2022-10-17T11:42:53;20.80;99.90
5960;DHT22;3006;50.956;7.002;2022-10-17T11:45:26;20.90;99.90
5960;DHT22;3006;50.956;7.002;2022-10-17T11:48:00;20.90;99.90
5960;DHT22;3006;50.956;7.002;2022-10-17T11:50:31;20.90;99.90
5960;DHT22;3006;50.956;7.002;2022-10-17T11:53:23;20.90;99.90
5960;DHT22;3006;50.956;7.002;2022-10-17T11:55:53;20.90;99.90
5960;DHT22;3006;50.956;7.002;2022-10-17T11:58:31;20.90;99.90
5960;DHT22;3006;50.956;7.002;2022-10-17T12:01:09;21.00;99.90
5960;DHT22;3006;50.956;7.002;2022-10-17T12:04:00;21.00;99.90
5960;DHT22;3006;50.956;7.002;2022-10-17T12:06:42;21.00;99.90
5960;DHT22;3006;50.956;7.002;2022-10-17T12:09:18;21.00;99.90
5960;DHT22;3006;50.956;7.002;2022-10-17T12:11:51;21.00;99.90
5960;DHT22;3006;50.956;7.002;2022-10-17T12:14:41;20.90;99.90
5960;DHT22;3006;50.956;7.002;2022-10-17T12:17:36;20.90;99.90
5960;DHT22;3006;50.956;7.002;2022-10-17T12:20:33;21.00;99.90
5960;DHT22;3006;50.956;7.002;2022-10-17T12:23:19;20.90;99.90
5960;DHT22;3006;50.956;7.002;2022-10-17T12:25:51;21.00;99.90
5960;DHT22;3006;50.956;7.002;2022-10-17T12:28:27;21.00;99.90
5960;DHT22;3006;50.956;7.002;2022-10-17T12:31:00;20.90;99.90
5960;DHT22;3006;50.956;7.002;2022-10-17T12:33:33;20.90;99.90
5960;DHT22;3006;50.956;7.002;2022-10-17T12:42:32;20.80;99.90
5960;DHT22;3006;50.956;7.002;2022-10-17T12:45:11;20.80;99.90
5960;DHT22;3006;50.956;7.002;2022-10-17T12:47:53;20.70;99.90
5960;DHT22;3006;50.956;7.002;2022-10-17T12:50:59;20.70;99.90
5960;DHT22;3006;50.956;7.002;2022-10-17T12:53:53;20.70;99.90
5960;DHT22;3006;50.956;7.002;2022-10-17T12:56:30;20.70;99.90
5960;DHT22;3006;50.956;7.002;2022-10-17T12:59:07;20.70;99.90
5960;DHT22;3006;50.956;7.002;2022-10-17T13:01:37;20.80;99.90
5960;DHT22;3006;50.956;7.002;2022-10-17T13:04:09;20.80;99.90
5960;DHT22;3006;50.956;7.002;2022-10-17T13:06:44;20.70;99.90
5960;DHT22;3006;50.956;7.002;2022-10-17T13:09:21;20.80;99.90
5960;DHT22;3006;50.956;7.002;2022-10-17T13:11:51;20.80;99.90
5960;DHT22;3006;50.956;7.002;2022-10-17T13:14:21;20.80;99.90
5960;DHT22;3006;50.956;7.002;2022-10-17T13:16:52;20.70;99.90
5960;DHT22;3006;50.956;7.002;2022-10-17T13:19:23;20.80;99.90
5960;DHT22;3006;50.956;7.002;2022-10-17T13:21:52;20.80;99.90
5960;DHT22;3006;50.956;7.002;2022-10-17T13:24:28;20.80;99.90
5960;DHT22;3006;50.956;7.002;2022-10-17T13:26:57;20.80;99.90
5960;DHT22;3006;50.956;7.002;2022-10-17T13:29:27;20.80;99.90
5960;DHT22;3006;50.956;7.002;2022-10-17T13:31:59;20.80;99.90
5960;DHT22;3006;50.956;7.002;2022-10-17T13:34:29;20.80;99.90
5960;DHT22;3006;50.956;7.002;2022-10-17T13:37:00;20.90;99.90
5960;DHT22;3006;50.956;7.002;2022-10-17T13:39:37;20.90;99.90
5960;DHT22;3006;50.956;7.002;2022-10-17T13:42:28;20.80;99.90
5960;DHT22;3006;50.956;7.002;2022-10-17T13:44:58;20.80;99.90
5960;DHT22;3006;50.956;7.002;2022-10-17T13:47:28;20.80;99.90
5960;DHT22;3006;50.956;7.002;2022-10-17T13:49:58;20.80;99.90
5960;DHT22;3006;50.956;7.002;2022-10-17T13:52:28;20.80;99.90
5960;DHT22;3006;50.956;7.002;2022-10-17T13:55:06;20.80;99.90
5960;DHT22;3006;50.956;7.002;2022-10-17T13:57:39;20.80;99.90
5960;DHT22;3006;50.956;7.002;2022-10-17T14:00:16;20.80;99.90
5960;DHT22;3006;50.956;7.002;2022-10-17T14:02:45;20.80;99.90
5960;DHT22;3006;50.956;7.002;2022-10-17T14:05:17;20.80;99.90
5960;DHT22;3006;50.956;7.002;2022-10-17T14:07:51;20.90;99.90
5960;DHT22;3006;50.956;7.002;2022-10-17T14:10:41;20.90;99.90
5960;DHT22;3006;50.956;7.002;2022-10-17T14:13:19;21.00;99.90
5960;DHT22;3006;50.956;7.002;2022-10-17T14:15:49;21.00;99.90
5960;DHT22;3006;50.956;7.002;2022-10-17T14:18:20;21.10;99.90
5960;DHT22;3006;50.956;7.002;2022-10-17T14:20:51;21.10;99.90
5960;DHT22;3006;50.956;7.002;2022-10-17T14:23:42;21.10;99.90
5960;DHT22;3006;50.956;7.002;2022-10-17T14:26:13;21.20;99.90
5960;DHT22;3006;50.956;7.002;2022-10-17T14:28:43;21.20;99.90
5960;DHT22;3006;50.956;7.002;2022-10-17T14:31:34;21.20;99.90
5960;DHT22;3006;50.956;7.002;2022-10-17T14:34:04;21.20;99.90
5960;DHT22;3006;50.956;7.002;2022-10-17T14:36:36;21.20;99.90
5960;DHT22;3006;50.956;7.002;2022-10-17T14:39:07;21.20;99.90
5960;DHT22;3006;50.956;7.002;2022-10-17T14:41:43;21.20;99.90
5960;DHT22;3006;50.956;7.002;2022-10-17T14:44:19;21.30;99.90
5960;DHT22;3006;50.956;7.002;2022-10-17T14:46:52;21.20;99.90
5960;DHT22;3006;50.956;7.002;2022-10-17T14:49:32;21.30;99.90
5960;DHT22;3006;50.956;7.002;2022-10-17T14:52:20;21.40;99.90
5960;DHT22;3006;50.956;7.002;2022-10-17T14:54:51;21.40;99.90
5960;DHT22;3006;50.956;7.002;2022-10-17T14:57:23;21.40;99.90
5960;DHT22;3006;50.956;7.002;2022-10-17T14:59:51;21.40;99.90
5960;DHT22;3006;50.956;7.002;2022-10-17T15:02:21;21.40;99.90
5960;DHT22;3006;50.956;7.002;2022-10-17T15:04:50;21.40;99.90
5960;DHT22;3006;50.956;7.002;2022-10-17T15:07:20;21.40;99.90
5960;DHT22;3006;50.956;7.002;2022-10-17T15:09:51;21.30;99.90
5960;DHT22;3006;50.956;7.002;2022-10-17T15:12:22;21.30;99.90
5960;DHT22;3006;50.956;7.002;2022-10-17T15:14:51;21.30;99.90
5960;DHT22;3006;50.956;7.002;2022-10-17T15:17:23;21.30;99.90
5960;DHT22;3006;50.956;7.002;2022-10-17T15:19:52;21.20;99.90
5960;DHT22;3006;50.956;7.002;2022-10-17T15:22:21;21.20;99.90
5960;DHT22;3006;50.956;7.002;2022-10-17T15:24:49;21.20;99.90
5960;DHT22;3006;50.956;7.002;2022-10-17T15:27:19;21.10;99.90
5960;DHT22;3006;50.956;7.002;2022-10-17T15:29:49;21.10;99.90
5960;DHT22;3006;50.956;7.002;2022-10-17T15:32:19;21.10;99.90
5960;DHT22;3006;50.956;7.002;2022-10-17T15:34:47;21.00;99.90
5960;DHT22;3006;50.956;7.002;2022-10-17T15:37:18;21.00;99.90
5960;DHT22;3006;50.956;7.002;2022-10-17T15:39:51;20.90;99.90
5960;DHT22;3006;50.956;7.002;2022-10-17T15:42:21;20.90;99.90
5960;DHT22;3006;50.956;7.002;2022-10-17T15:44:49;20.80;99.90
5960;DHT22;3006;50.956;7.002;2022-10-17T15:47:22;20.80;99.90
5960;DHT22;3006;50.956;7.002;2022-10-17T15:49:51;20.80;99.90
5960;DHT22;3006;50.956;7.002;2022-10-17T15:52:21;20.70;99.90
5960;DHT22;3006;50.956;7.002;2022-10-17T15:54:50;20.70;99.90
5960;DHT22;3006;50.956;7.002;2022-10-17T15:57:26;20.70;99.90
5960;DHT22;3006;50.956;7.002;2022-10-17T15:59:56;20.70;99.90
5960;DHT22;3006;50.956;7.002;2022-10-17T16:02:25;20.60;99.90
5960;DHT22;3006;50.956;7.002;2022-10-17T16:04:54;20.60;99.90
5960;DHT22;3006;50.956;7.002;2022-10-17T16:07:22;20.60;99.90
5960;DHT22;3006;50.956;7.002;2022-10-17T16:09:51;20.60;99.90
5960;DHT22;3006;50.956;7.002;2022-10-17T16:12:22;20.60;99.90
5960;DHT22;3006;50.956;7.002;2022-10-17T16:14:53;20.60;99.90
5960;DHT22;3006;50.956;7.002;2022-10-17T16:17:22;20.70;99.90
5960;DHT22;3006;50.956;7.002;2022-10-17T16:19:50;20.60;99.90
5960;DHT22;3006;50.956;7.002;2022-10-17T16:22:22;20.60;99.90
5960;DHT22;3006;50.956;7.002;2022-10-17T16:24:52;20.70;99.90
5960;DHT22;3006;50.956;7.002;2022-10-17T16:27:25;20.60;99.90
5960;DHT22;3006;50.956;7.002;2022-10-17T16:29:53;20.60;99.90
5960;DHT22;3006;50.956;7.002;2022-10-17T16:32:21;20.60;99.90
5960;DHT22;3006;50.956;7.002;2022-10-17T16:34:49;20.50;99.90
5960;DHT22;3006;50.956;7.002;2022-10-17T16:37:17;20.40;99.90
5960;DHT22;3006;50.956;7.002;2022-10-17T16:39:45;20.40;99.90
5960;DHT22;3006;50.956;7.002;2022-10-17T16:42:19;20.30;99.90
5960;DHT22;3006;50.956;7.002;2022-10-17T16:44:48;20.20;99.90
5960;DHT22;3006;50.956;7.002;2022-10-17T16:47:18;20.10;99.90
5960;DHT22;3006;50.956;7.002;2022-10-17T16:49:46;20.10;99.90
5960;DHT22;3006;50.956;7.002;2022-10-17T16:52:14;20.00;99.90